sensor_id;sensor_type;location;lat;lon;timestamp;P1;durP1;ratioP1;P2;durP2;ratioP2
75894;SDS011;64573;50.328;15.014;2023-05-10T00:02:25;2.78;;;1.85;;
75894;SDS011;64573;50.328;15.014;2023-05-10T00:04:50;2.88;;;2.00;;
75894;SDS011;64573;50.328;15.014;2023-05-10T00:07:16;7.82;;;2.40;;
75894;SDS011;64573;50.328;15.014;2023-05-10T00:09:42;2.25;;;1.70;;
75894;SDS011;64573;50.328;15.014;2023-05-10T00:12:08;3.28;;;1.90;;
75894;SDS011;64573;50.328;15.014;2023-05-10T00:14:33;3.65;;;2.22;;
75894;SDS011;64573;50.328;15.014;2023-05-10T00:16:59;2.28;;;1.80;;
75894;SDS011;64573;50.328;15.014;2023-05-10T00:19:25;2.70;;;2.00;;
75894;SDS011;64573;50.328;15.014;2023-05-10T00:21:50;2.75;;;1.77;;
75894;SDS011;64573;50.328;15.014;2023-05-10T00:24:15;2.40;;;2.00;;
75894;SDS011;64573;50.328;15.014;2023-05-10T00:26:41;6.38;;;2.00;;
75894;SDS011;64573;50.328;15.014;2023-05-10T00:29:07;3.20;;;1.70;;
75894;SDS011;64573;50.328;15.014;2023-05-10T00:31:32;3.13;;;1.98;;
75894;SDS011;64573;50.328;15.014;2023-05-10T00:33:58;3.15;;;2.10;;
75894;SDS011;64573;50.328;15.014;2023-05-10T00:36:23;4.03;;;1.98;;
75894;SDS011;64573;50.328;15.014;2023-05-10T00:38:48;3.13;;;2.10;;
75894;SDS011;64573;50.328;15.014;2023-05-10T00:41:13;6.55;;;2.80;;
75894;SDS011;64573;50.328;15.014;2023-05-10T00:43:39;3.13;;;1.90;;
75894;SDS011;64573;50.328;15.014;2023-05-10T00:46:04;2.75;;;1.77;;
75894;SDS011;64573;50.328;15.014;2023-05-10T00:48:30;4.47;;;1.80;;
75894;SDS011;64573;50.328;15.014;2023-05-10T00:50:56;4.43;;;1.88;;
75894;SDS011;64573;50.328;15.014;2023-05-10T00:53:22;3.40;;;1.90;;
75894;SDS011;64573;50.328;15.014;2023-05-10T00:55:48;3.00;;;2.00;;
75894;SDS011;64573;50.328;15.014;2023-05-10T00:58:14;2.83;;;1.90;;
75894;SDS011;64573;50.328;15.014;2023-05-10T01:00:41;3.72;;;1.65;;
75894;SDS011;64573;50.328;15.014;2023-05-10T01:03:07;2.20;;;1.80;;
75894;SDS011;64573;50.328;15.014;2023-05-10T01:05:32;2.55;;;1.83;;
75894;SDS011;64573;50.328;15.014;2023-05-10T01:07:57;2.15;;;1.80;;
75894;SDS011;64573;50.328;15.014;2023-05-10T01:10:23;2.20;;;1.77;;
75894;SDS011;64573;50.328;15.014;2023-05-10T01:12:48;2.80;;;1.77;;
75894;SDS011;64573;50.328;15.014;2023-05-10T01:15:14;4.50;;;2.20;;
75894;SDS011;64573;50.328;15.014;2023-05-10T01:17:42;2.63;;;1.75;;
75894;SDS011;64573;50.328;15.014;2023-05-10T01:20:10;3.47;;;1.85;;
75894;SDS011;64573;50.328;15.014;2023-05-10T01:25:48;2.92;;;1.70;;
75894;SDS011;64573;50.328;15.014;2023-05-10T01:34:09;6.10;;;1.90;;
75894;SDS011;64573;50.328;15.014;2023-05-10T01:36:41;3.72;;;1.88;;
75894;SDS011;64573;50.328;15.014;2023-05-10T01:39:24;5.30;;;2.05;;
75894;SDS011;64573;50.328;15.014;2023-05-10T01:42:11;7.07;;;2.20;;
75894;SDS011;64573;50.328;15.014;2023-05-10T01:44:40;3.38;;;1.75;;
75894;SDS011;64573;50.328;15.014;2023-05-10T01:47:15;2.40;;;1.80;;
75894;SDS011;64573;50.328;15.014;2023-05-10T01:49:49;4.07;;;2.10;;
75894;SDS011;64573;50.328;15.014;2023-05-10T01:52:17;4.13;;;1.67;;
75894;SDS011;64573;50.328;15.014;2023-05-10T01:54:47;2.28;;;1.80;;
75894;SDS011;64573;50.328;15.014;2023-05-10T01:57:18;2.40;;;1.80;;
75894;SDS011;64573;50.328;15.014;2023-05-10T01:59:45;3.50;;;1.60;;
75894;SDS011;64573;50.328;15.014;2023-05-10T02:02:14;4.40;;;2.00;;
75894;SDS011;64573;50.328;15.014;2023-05-10T02:04:42;2.15;;;1.52;;
75894;SDS011;64573;50.328;15.014;2023-05-10T02:07:09;3.95;;;2.10;;
75894;SDS011;64573;50.328;15.014;2023-05-10T02:09:35;3.90;;;1.90;;
75894;SDS011;64573;50.328;15.014;2023-05-10T02:12:02;3.15;;;2.10;;
75894;SDS011;64573;50.328;15.014;2023-05-10T02:14:30;3.20;;;1.85;;
75894;SDS011;64573;50.328;15.014;2023-05-10T02:16:59;4.25;;;1.70;;
75894;SDS011;64573;50.328;15.014;2023-05-10T02:19:27;2.58;;;1.83;;
75894;SDS011;64573;50.328;15.014;2023-05-10T02:21:55;2.83;;;2.00;;
75894;SDS011;64573;50.328;15.014;2023-05-10T02:24:21;2.70;;;1.77;;
75894;SDS011;64573;50.328;15.014;2023-05-10T02:26:49;2.85;;;1.83;;
75894;SDS011;64573;50.328;15.014;2023-05-10T02:29:16;3.90;;;1.80;;
75894;SDS011;64573;50.328;15.014;2023-05-10T02:31:43;3.22;;;1.60;;
75894;SDS011;64573;50.328;15.014;2023-05-10T02:34:10;2.97;;;1.58;;
75894;SDS011;64573;50.328;15.014;2023-05-10T02:36:37;2.80;;;2.00;;
75894;SDS011;64573;50.328;15.014;2023-05-10T02:39:04;2.78;;;1.60;;
75894;SDS011;64573;50.328;15.014;2023-05-10T02:41:34;2.75;;;2.05;;
75894;SDS011;64573;50.328;15.014;2023-05-10T02:44:02;5.13;;;2.08;;
75894;SDS011;64573;50.328;15.014;2023-05-10T02:46:28;2.58;;;1.80;;
75894;SDS011;64573;50.328;15.014;2023-05-10T02:48:54;2.97;;;1.88;;
75894;SDS011;64573;50.328;15.014;2023-05-10T02:51:20;2.80;;;1.88;;
75894;SDS011;64573;50.328;15.014;2023-05-10T02:53:50;2.85;;;2.05;;
75894;SDS011;64573;50.328;15.014;2023-05-10T02:56:40;3.85;;;2.40;;
75894;SDS011;64573;50.328;15.014;2023-05-10T02:59:10;2.50;;;2.28;;
75894;SDS011;64573;50.328;15.014;2023-05-10T03:01:36;3.70;;;2.08;;
75894;SDS011;64573;50.328;15.014;2023-05-10T03:04:01;2.47;;;1.88;;
75894;SDS011;64573;50.328;15.014;2023-05-10T03:06:26;2.20;;;1.67;;
75894;SDS011;64573;50.328;15.014;2023-05-10T03:08:53;2.50;;;2.10;;
75894;SDS011;64573;50.328;15.014;2023-05-10T03:11:25;2.85;;;2.00;;
75894;SDS011;64573;50.328;15.014;2023-05-10T03:16:45;5.00;;;1.83;;
75894;SDS011;64573;50.328;15.014;2023-05-10T03:19:22;3.85;;;1.80;;
75894;SDS011;64573;50.328;15.014;2023-05-10T03:21:52;3.40;;;2.10;;
75894;SDS011;64573;50.328;15.014;2023-05-10T03:24:20;6.85;;;2.10;;
75894;SDS011;64573;50.328;15.014;2023-05-10T03:26:47;8.00;;;1.85;;
75894;SDS011;64573;50.328;15.014;2023-05-10T03:29:15;3.17;;;2.10;;
75894;SDS011;64573;50.328;15.014;2023-05-10T03:31:41;2.30;;;1.70;;
75894;SDS011;64573;50.328;15.014;2023-05-10T03:34:07;4.30;;;2.08;;
75894;SDS011;64573;50.328;15.014;2023-05-10T03:36:32;9.27;;;2.25;;
75894;SDS011;64573;50.328;15.014;2023-05-10T03:38:58;2.58;;;1.98;;
75894;SDS011;64573;50.328;15.014;2023-05-10T03:41:23;3.63;;;2.20;;
75894;SDS011;64573;50.328;15.014;2023-05-10T03:43:50;5.68;;;2.17;;
75894;SDS011;64573;50.328;15.014;2023-05-10T03:46:15;3.40;;;1.90;;
75894;SDS011;64573;50.328;15.014;2023-05-10T03:48:40;2.53;;;1.90;;
75894;SDS011;64573;50.328;15.014;2023-05-10T03:51:05;2.90;;;2.00;;
75894;SDS011;64573;50.328;15.014;2023-05-10T03:53:31;3.33;;;2.00;;
75894;SDS011;64573;50.328;15.014;2023-05-10T03:55:56;2.92;;;2.17;;
75894;SDS011;64573;50.328;15.014;2023-05-10T03:58:21;5.15;;;2.10;;
75894;SDS011;64573;50.328;15.014;2023-05-10T04:00:47;3.10;;;2.05;;
75894;SDS011;64573;50.328;15.014;2023-05-10T04:03:12;3.00;;;1.95;;
75894;SDS011;64573;50.328;15.014;2023-05-10T04:05:38;2.58;;;1.90;;
75894;SDS011;64573;50.328;15.014;2023-05-10T04:08:03;4.60;;;2.35;;
75894;SDS011;64573;50.328;15.014;2023-05-10T04:10:29;3.67;;;2.00;;
75894;SDS011;64573;50.328;15.014;2023-05-10T04:12:55;4.68;;;2.30;;
75894;SDS011;64573;50.328;15.014;2023-05-10T04:15:20;3.72;;;2.38;;
75894;SDS011;64573;50.328;15.014;2023-05-10T04:17:45;2.38;;;1.70;;
75894;SDS011;64573;50.328;15.014;2023-05-10T04:20:11;2.80;;;1.77;;
75894;SDS011;64573;50.328;15.014;2023-05-10T04:22:37;3.28;;;2.08;;
75894;SDS011;64573;50.328;15.014;2023-05-10T04:25:03;3.00;;;2.10;;
75894;SDS011;64573;50.328;15.014;2023-05-10T04:27:29;2.28;;;1.88;;
75894;SDS011;64573;50.328;15.014;2023-05-10T04:29:54;3.28;;;2.00;;
75894;SDS011;64573;50.328;15.014;2023-05-10T04:32:20;4.10;;;2.10;;
75894;SDS011;64573;50.328;15.014;2023-05-10T04:34:45;2.72;;;2.03;;
75894;SDS011;64573;50.328;15.014;2023-05-10T04:37:11;4.28;;;2.13;;
75894;SDS011;64573;50.328;15.014;2023-05-10T04:39:36;4.57;;;2.38;;
75894;SDS011;64573;50.328;15.014;2023-05-10T04:42:02;4.80;;;2.03;;
75894;SDS011;64573;50.328;15.014;2023-05-10T04:44:30;3.42;;;2.13;;
75894;SDS011;64573;50.328;15.014;2023-05-10T04:46:55;7.60;;;3.28;;
75894;SDS011;64573;50.328;15.014;2023-05-10T04:49:21;2.83;;;2.00;;
75894;SDS011;64573;50.328;15.014;2023-05-10T04:51:46;4.53;;;1.90;;
75894;SDS011;64573;50.328;15.014;2023-05-10T04:54:12;3.40;;;2.40;;
75894;SDS011;64573;50.328;15.014;2023-05-10T04:56:37;3.72;;;2.05;;
75894;SDS011;64573;50.328;15.014;2023-05-10T04:59:02;3.22;;;1.85;;
75894;SDS011;64573;50.328;15.014;2023-05-10T05:01:28;4.05;;;2.22;;
75894;SDS011;64573;50.328;15.014;2023-05-10T05:03:53;2.92;;;2.05;;
75894;SDS011;64573;50.328;15.014;2023-05-10T05:06:18;3.25;;;2.10;;
75894;SDS011;64573;50.328;15.014;2023-05-10T05:08:45;2.20;;;1.90;;
75894;SDS011;64573;50.328;15.014;2023-05-10T05:11:11;3.38;;;1.80;;
75894;SDS011;64573;50.328;15.014;2023-05-10T05:13:36;5.78;;;2.08;;
75894;SDS011;64573;50.328;15.014;2023-05-10T05:16:02;6.75;;;2.35;;
75894;SDS011;64573;50.328;15.014;2023-05-10T05:18:27;5.05;;;2.25;;
75894;SDS011;64573;50.328;15.014;2023-05-10T05:20:53;3.53;;;2.03;;
75894;SDS011;64573;50.328;15.014;2023-05-10T05:23:18;8.98;;;2.17;;
75894;SDS011;64573;50.328;15.014;2023-05-10T05:25:45;4.00;;;2.28;;
75894;SDS011;64573;50.328;15.014;2023-05-10T05:28:11;2.53;;;1.92;;
75894;SDS011;64573;50.328;15.014;2023-05-10T05:30:36;2.83;;;2.00;;
75894;SDS011;64573;50.328;15.014;2023-05-10T05:33:02;2.78;;;2.00;;
75894;SDS011;64573;50.328;15.014;2023-05-10T05:35:28;3.00;;;2.05;;
75894;SDS011;64573;50.328;15.014;2023-05-10T05:37:53;4.45;;;2.10;;
75894;SDS011;64573;50.328;15.014;2023-05-10T05:40:18;3.38;;;2.25;;
75894;SDS011;64573;50.328;15.014;2023-05-10T05:42:45;3.83;;;2.17;;
75894;SDS011;64573;50.328;15.014;2023-05-10T05:45:10;3.88;;;2.15;;
75894;SDS011;64573;50.328;15.014;2023-05-10T05:47:38;2.80;;;1.90;;
75894;SDS011;64573;50.328;15.014;2023-05-10T05:50:04;2.78;;;2.00;;
75894;SDS011;64573;50.328;15.014;2023-05-10T05:52:29;3.55;;;2.20;;
75894;SDS011;64573;50.328;15.014;2023-05-10T05:54:55;3.28;;;2.15;;
75894;SDS011;64573;50.328;15.014;2023-05-10T05:57:20;3.13;;;2.10;;
75894;SDS011;64573;50.328;15.014;2023-05-10T05:59:46;4.60;;;2.28;;
75894;SDS011;64573;50.328;15.014;2023-05-10T06:02:13;4.00;;;2.63;;
75894;SDS011;64573;50.328;15.014;2023-05-10T06:04:38;4.10;;;2.28;;
75894;SDS011;64573;50.328;15.014;2023-05-10T06:07:04;2.72;;;2.28;;
75894;SDS011;64573;50.328;15.014;2023-05-10T06:09:29;5.15;;;2.55;;
75894;SDS011;64573;50.328;15.014;2023-05-10T06:11:54;4.03;;;2.40;;
75894;SDS011;64573;50.328;15.014;2023-05-10T06:14:20;3.10;;;2.17;;
75894;SDS011;64573;50.328;15.014;2023-05-10T06:16:46;6.22;;;2.55;;
75894;SDS011;64573;50.328;15.014;2023-05-10T06:19:11;5.20;;;2.67;;
75894;SDS011;64573;50.328;15.014;2023-05-10T06:21:37;3.35;;;2.35;;
75894;SDS011;64573;50.328;15.014;2023-05-10T06:24:02;3.30;;;2.20;;
75894;SDS011;64573;50.328;15.014;2023-05-10T06:26:28;3.03;;;2.17;;
75894;SDS011;64573;50.328;15.014;2023-05-10T06:28:53;2.58;;;1.98;;
75894;SDS011;64573;50.328;15.014;2023-05-10T06:31:18;4.13;;;2.40;;
75894;SDS011;64573;50.328;15.014;2023-05-10T06:33:43;4.50;;;2.45;;
75894;SDS011;64573;50.328;15.014;2023-05-10T06:36:09;3.55;;;2.22;;
75894;SDS011;64573;50.328;15.014;2023-05-10T06:38:35;4.07;;;2.38;;
75894;SDS011;64573;50.328;15.014;2023-05-10T06:41:00;2.83;;;2.22;;
75894;SDS011;64573;50.328;15.014;2023-05-10T06:43:25;4.43;;;2.15;;
75894;SDS011;64573;50.328;15.014;2023-05-10T06:45:51;6.28;;;2.35;;
75894;SDS011;64573;50.328;15.014;2023-05-10T06:48:16;4.10;;;2.30;;
75894;SDS011;64573;50.328;15.014;2023-05-10T06:50:42;3.85;;;2.30;;
75894;SDS011;64573;50.328;15.014;2023-05-10T06:53:07;5.15;;;2.17;;
75894;SDS011;64573;50.328;15.014;2023-05-10T06:55:32;4.95;;;2.47;;
75894;SDS011;64573;50.328;15.014;2023-05-10T06:57:58;4.30;;;2.50;;
75894;SDS011;64573;50.328;15.014;2023-05-10T07:00:23;4.25;;;2.38;;
75894;SDS011;64573;50.328;15.014;2023-05-10T07:02:49;3.20;;;2.20;;
75894;SDS011;64573;50.328;15.014;2023-05-10T07:05:14;6.25;;;2.30;;
75894;SDS011;64573;50.328;15.014;2023-05-10T07:07:40;5.65;;;2.25;;
75894;SDS011;64573;50.328;15.014;2023-05-10T07:10:05;4.25;;;2.20;;
75894;SDS011;64573;50.328;15.014;2023-05-10T07:12:32;3.15;;;2.33;;
75894;SDS011;64573;50.328;15.014;2023-05-10T07:14:57;3.30;;;2.50;;
75894;SDS011;64573;50.328;15.014;2023-05-10T07:17:22;7.35;;;2.20;;
75894;SDS011;64573;50.328;15.014;2023-05-10T07:19:48;4.78;;;2.45;;
75894;SDS011;64573;50.328;15.014;2023-05-10T07:22:14;8.00;;;2.63;;
75894;SDS011;64573;50.328;15.014;2023-05-10T07:24:40;5.40;;;2.30;;
75894;SDS011;64573;50.328;15.014;2023-05-10T07:27:05;8.07;;;2.55;;
75894;SDS011;64573;50.328;15.014;2023-05-10T07:29:31;3.13;;;2.30;;
75894;SDS011;64573;50.328;15.014;2023-05-10T07:31:56;8.35;;;2.75;;
75894;SDS011;64573;50.328;15.014;2023-05-10T07:34:21;4.03;;;2.40;;
75894;SDS011;64573;50.328;15.014;2023-05-10T07:36:47;3.25;;;2.42;;
75894;SDS011;64573;50.328;15.014;2023-05-10T07:39:12;3.80;;;2.20;;
75894;SDS011;64573;50.328;15.014;2023-05-10T07:41:38;5.15;;;2.20;;
75894;SDS011;64573;50.328;15.014;2023-05-10T07:44:04;4.32;;;2.75;;
75894;SDS011;64573;50.328;15.014;2023-05-10T07:46:29;5.60;;;2.40;;
75894;SDS011;64573;50.328;15.014;2023-05-10T07:48:55;8.63;;;2.80;;
75894;SDS011;64573;50.328;15.014;2023-05-10T07:51:20;7.75;;;2.55;;
75894;SDS011;64573;50.328;15.014;2023-05-10T07:53:46;4.55;;;2.42;;
75894;SDS011;64573;50.328;15.014;2023-05-10T07:59:00;3.30;;;2.30;;
75894;SDS011;64573;50.328;15.014;2023-05-10T08:01:30;5.45;;;3.40;;
75894;SDS011;64573;50.328;15.014;2023-05-10T08:03:56;2.80;;;2.22;;
75894;SDS011;64573;50.328;15.014;2023-05-10T08:06:21;5.07;;;2.45;;
75894;SDS011;64573;50.328;15.014;2023-05-10T08:08:47;4.22;;;2.70;;
75894;SDS011;64573;50.328;15.014;2023-05-10T08:11:16;2.92;;;2.33;;
75894;SDS011;64573;50.328;15.014;2023-05-10T08:13:42;4.80;;;2.47;;
75894;SDS011;64573;50.328;15.014;2023-05-10T08:16:07;5.07;;;2.20;;
75894;SDS011;64573;50.328;15.014;2023-05-10T08:18:33;6.47;;;2.35;;
75894;SDS011;64573;50.328;15.014;2023-05-10T08:20:58;6.05;;;2.40;;
75894;SDS011;64573;50.328;15.014;2023-05-10T08:23:23;2.35;;;2.15;;
75894;SDS011;64573;50.328;15.014;2023-05-10T08:25:49;3.95;;;2.22;;
75894;SDS011;64573;50.328;15.014;2023-05-10T08:28:14;5.95;;;2.35;;
75894;SDS011;64573;50.328;15.014;2023-05-10T08:30:40;4.40;;;2.10;;
75894;SDS011;64573;50.328;15.014;2023-05-10T08:33:05;4.45;;;2.42;;
75894;SDS011;64573;50.328;15.014;2023-05-10T08:35:30;7.57;;;2.60;;
75894;SDS011;64573;50.328;15.014;2023-05-10T08:37:56;5.07;;;2.22;;
75894;SDS011;64573;50.328;15.014;2023-05-10T08:40:22;3.13;;;2.03;;
75894;SDS011;64573;50.328;15.014;2023-05-10T08:42:52;3.85;;;2.35;;
75894;SDS011;64573;50.328;15.014;2023-05-10T08:45:23;6.03;;;1.95;;
75894;SDS011;64573;50.328;15.014;2023-05-10T08:47:50;5.95;;;2.53;;
75894;SDS011;64573;50.328;15.014;2023-05-10T08:50:17;4.60;;;2.58;;
75894;SDS011;64573;50.328;15.014;2023-05-10T08:52:45;3.75;;;2.13;;
75894;SDS011;64573;50.328;15.014;2023-05-10T08:55:13;6.35;;;2.40;;
75894;SDS011;64573;50.328;15.014;2023-05-10T08:57:39;2.75;;;2.03;;
75894;SDS011;64573;50.328;15.014;2023-05-10T09:00:05;3.67;;;2.33;;
75894;SDS011;64573;50.328;15.014;2023-05-10T09:02:31;6.40;;;2.85;;
75894;SDS011;64573;50.328;15.014;2023-05-10T09:04:57;5.78;;;2.53;;
75894;SDS011;64573;50.328;15.014;2023-05-10T09:07:22;3.53;;;2.50;;
75894;SDS011;64573;50.328;15.014;2023-05-10T09:09:48;4.32;;;2.40;;
75894;SDS011;64573;50.328;15.014;2023-05-10T09:12:13;3.70;;;2.22;;
75894;SDS011;64573;50.328;15.014;2023-05-10T09:14:41;8.68;;;2.35;;
75894;SDS011;64573;50.328;15.014;2023-05-10T09:17:08;7.57;;;2.47;;
75894;SDS011;64573;50.328;15.014;2023-05-10T09:19:34;4.78;;;2.47;;
75894;SDS011;64573;50.328;15.014;2023-05-10T09:22:00;7.28;;;2.50;;
75894;SDS011;64573;50.328;15.014;2023-05-10T09:24:26;3.80;;;2.80;;
75894;SDS011;64573;50.328;15.014;2023-05-10T09:26:52;11.10;;;2.40;;
75894;SDS011;64573;50.328;15.014;2023-05-10T09:29:17;5.00;;;2.45;;
75894;SDS011;64573;50.328;15.014;2023-05-10T09:31:44;3.42;;;2.50;;
75894;SDS011;64573;50.328;15.014;2023-05-10T09:34:19;5.82;;;2.50;;
75894;SDS011;64573;50.328;15.014;2023-05-10T09:36:56;2.83;;;2.42;;
75894;SDS011;64573;50.328;15.014;2023-05-10T09:39:29;2.92;;;2.20;;
75894;SDS011;64573;50.328;15.014;2023-05-10T09:42:03;3.55;;;2.45;;
75894;SDS011;64573;50.328;15.014;2023-05-10T09:44:35;4.63;;;2.58;;
75894;SDS011;64573;50.328;15.014;2023-05-10T09:47:01;4.97;;;2.25;;
75894;SDS011;64573;50.328;15.014;2023-05-10T09:49:27;4.75;;;2.33;;
75894;SDS011;64573;50.328;15.014;2023-05-10T09:52:00;4.13;;;2.60;;
75894;SDS011;64573;50.328;15.014;2023-05-10T09:54:29;3.22;;;2.17;;
75894;SDS011;64573;50.328;15.014;2023-05-10T09:56:54;3.03;;;2.30;;
75894;SDS011;64573;50.328;15.014;2023-05-10T09:59:20;5.55;;;2.50;;
75894;SDS011;64573;50.328;15.014;2023-05-10T10:01:52;8.90;;;2.42;;
75894;SDS011;64573;50.328;15.014;2023-05-10T10:04:22;4.80;;;2.50;;
75894;SDS011;64573;50.328;15.014;2023-05-10T10:06:57;6.95;;;2.70;;
75894;SDS011;64573;50.328;15.014;2023-05-10T10:09:24;4.90;;;2.35;;
75894;SDS011;64573;50.328;15.014;2023-05-10T10:11:50;6.70;;;2.95;;
75894;SDS011;64573;50.328;15.014;2023-05-10T10:14:18;8.15;;;2.40;;
75894;SDS011;64573;50.328;15.014;2023-05-10T10:16:43;4.80;;;2.80;;
75894;SDS011;64573;50.328;15.014;2023-05-10T10:19:10;4.10;;;2.40;;
75894;SDS011;64573;50.328;15.014;2023-05-10T10:21:35;5.63;;;2.50;;
75894;SDS011;64573;50.328;15.014;2023-05-10T10:24:01;7.15;;;2.42;;
75894;SDS011;64573;50.328;15.014;2023-05-10T10:26:26;10.10;;;2.40;;
75894;SDS011;64573;50.328;15.014;2023-05-10T10:34:27;3.38;;;2.50;;
75894;SDS011;64573;50.328;15.014;2023-05-10T10:36:56;3.60;;;2.55;;
75894;SDS011;64573;50.328;15.014;2023-05-10T10:39:23;4.80;;;2.60;;
75894;SDS011;64573;50.328;15.014;2023-05-10T10:41:53;4.18;;;2.50;;
75894;SDS011;64573;50.328;15.014;2023-05-10T10:49:43;2.83;;;2.30;;
75894;SDS011;64573;50.328;15.014;2023-05-10T10:54:40;8.25;;;2.50;;
75894;SDS011;64573;50.328;15.014;2023-05-10T10:57:13;3.15;;;2.40;;
75894;SDS011;64573;50.328;15.014;2023-05-10T10:59:42;2.97;;;2.38;;
75894;SDS011;64573;50.328;15.014;2023-05-10T11:02:32;3.78;;;2.35;;
75894;SDS011;64573;50.328;15.014;2023-05-10T11:04:59;10.52;;;2.67;;
75894;SDS011;64573;50.328;15.014;2023-05-10T11:07:25;3.80;;;2.15;;
75894;SDS011;64573;50.328;15.014;2023-05-10T11:09:51;3.60;;;2.17;;
75894;SDS011;64573;50.328;15.014;2023-05-10T11:12:16;4.53;;;2.10;;
75894;SDS011;64573;50.328;15.014;2023-05-10T11:14:42;3.40;;;2.22;;
75894;SDS011;64573;50.328;15.014;2023-05-10T11:20:09;3.78;;;2.40;;
75894;SDS011;64573;50.328;15.014;2023-05-10T11:22:51;5.32;;;2.40;;
75894;SDS011;64573;50.328;15.014;2023-05-10T11:25:18;2.88;;;2.20;;
75894;SDS011;64573;50.328;15.014;2023-05-10T11:27:43;3.47;;;2.00;;
75894;SDS011;64573;50.328;15.014;2023-05-10T11:30:10;3.65;;;2.33;;
75894;SDS011;64573;50.328;15.014;2023-05-10T11:32:39;5.13;;;2.20;;
75894;SDS011;64573;50.328;15.014;2023-05-10T11:35:06;6.95;;;2.42;;
75894;SDS011;64573;50.328;15.014;2023-05-10T11:37:36;4.18;;;2.60;;
75894;SDS011;64573;50.328;15.014;2023-05-10T11:40:07;4.65;;;2.33;;
75894;SDS011;64573;50.328;15.014;2023-05-10T11:42:35;7.80;;;2.53;;
75894;SDS011;64573;50.328;15.014;2023-05-10T11:45:02;3.55;;;2.55;;
75894;SDS011;64573;50.328;15.014;2023-05-10T11:47:27;5.53;;;2.45;;
75894;SDS011;64573;50.328;15.014;2023-05-10T11:49:53;2.85;;;2.22;;
75894;SDS011;64573;50.328;15.014;2023-05-10T11:52:18;3.90;;;2.25;;
75894;SDS011;64573;50.328;15.014;2023-05-10T11:54:53;7.63;;;2.28;;
75894;SDS011;64573;50.328;15.014;2023-05-10T11:57:19;4.68;;;2.38;;
75894;SDS011;64573;50.328;15.014;2023-05-10T11:59:46;3.20;;;2.30;;
75894;SDS011;64573;50.328;15.014;2023-05-10T12:02:13;5.07;;;2.50;;
75894;SDS011;64573;50.328;15.014;2023-05-10T12:04:38;6.75;;;2.40;;
75894;SDS011;64573;50.328;15.014;2023-05-10T12:07:04;4.30;;;2.40;;
75894;SDS011;64573;50.328;15.014;2023-05-10T12:09:30;4.70;;;2.00;;
75894;SDS011;64573;50.328;15.014;2023-05-10T12:11:55;7.88;;;2.40;;
75894;SDS011;64573;50.328;15.014;2023-05-10T12:14:24;7.35;;;2.65;;
75894;SDS011;64573;50.328;15.014;2023-05-10T12:16:49;4.20;;;2.40;;
75894;SDS011;64573;50.328;15.014;2023-05-10T12:19:18;8.45;;;2.60;;
75894;SDS011;64573;50.328;15.014;2023-05-10T12:21:44;6.05;;;2.30;;
75894;SDS011;64573;50.328;15.014;2023-05-10T12:24:10;5.82;;;2.22;;
75894;SDS011;64573;50.328;15.014;2023-05-10T12:26:35;4.68;;;2.05;;
75894;SDS011;64573;50.328;15.014;2023-05-10T12:29:14;3.13;;;2.20;;
75894;SDS011;64573;50.328;15.014;2023-05-10T12:34:23;7.07;;;2.90;;
75894;SDS011;64573;50.328;15.014;2023-05-10T12:36:51;4.60;;;2.20;;
75894;SDS011;64573;50.328;15.014;2023-05-10T12:39:17;5.05;;;2.53;;
75894;SDS011;64573;50.328;15.014;2023-05-10T12:41:43;8.60;;;2.80;;
75894;SDS011;64573;50.328;15.014;2023-05-10T12:44:09;6.07;;;2.47;;
75894;SDS011;64573;50.328;15.014;2023-05-10T12:46:35;2.70;;;2.10;;
75894;SDS011;64573;50.328;15.014;2023-05-10T12:49:01;4.32;;;2.20;;
75894;SDS011;64573;50.328;15.014;2023-05-10T12:51:27;3.63;;;2.08;;
75894;SDS011;64573;50.328;15.014;2023-05-10T12:53:52;4.28;;;2.20;;
75894;SDS011;64573;50.328;15.014;2023-05-10T12:56:20;3.40;;;2.10;;
75894;SDS011;64573;50.328;15.014;2023-05-10T12:58:45;6.65;;;2.03;;
75894;SDS011;64573;50.328;15.014;2023-05-10T13:01:13;4.68;;;2.22;;
75894;SDS011;64573;50.328;15.014;2023-05-10T13:03:38;5.30;;;2.38;;
75894;SDS011;64573;50.328;15.014;2023-05-10T13:06:04;2.75;;;2.03;;
75894;SDS011;64573;50.328;15.014;2023-05-10T13:08:30;5.60;;;1.92;;
75894;SDS011;64573;50.328;15.014;2023-05-10T13:10:58;3.33;;;2.28;;
75894;SDS011;64573;50.328;15.014;2023-05-10T13:13:24;4.32;;;1.92;;
75894;SDS011;64573;50.328;15.014;2023-05-10T13:15:49;5.70;;;2.40;;
75894;SDS011;64573;50.328;15.014;2023-05-10T13:18:15;4.05;;;2.20;;
75894;SDS011;64573;50.328;15.014;2023-05-10T13:20:40;3.25;;;1.85;;
75894;SDS011;64573;50.328;15.014;2023-05-10T13:23:08;3.90;;;2.10;;
75894;SDS011;64573;50.328;15.014;2023-05-10T13:25:33;3.28;;;2.25;;
75894;SDS011;64573;50.328;15.014;2023-05-10T13:27:59;2.42;;;2.10;;
75894;SDS011;64573;50.328;15.014;2023-05-10T13:30:24;4.70;;;2.03;;
75894;SDS011;64573;50.328;15.014;2023-05-10T13:32:50;4.32;;;2.10;;
75894;SDS011;64573;50.328;15.014;2023-05-10T13:35:15;3.92;;;1.98;;
75894;SDS011;64573;50.328;15.014;2023-05-10T13:37:40;3.85;;;1.95;;
75894;SDS011;64573;50.328;15.014;2023-05-10T13:40:06;2.33;;;1.70;;
75894;SDS011;64573;50.328;15.014;2023-05-10T13:42:32;3.45;;;1.65;;
75894;SDS011;64573;50.328;15.014;2023-05-10T13:44:58;5.20;;;1.70;;
75894;SDS011;64573;50.328;15.014;2023-05-10T13:47:25;5.10;;;1.92;;
75894;SDS011;64573;50.328;15.014;2023-05-10T13:49:50;3.47;;;1.80;;
75894;SDS011;64573;50.328;15.014;2023-05-10T13:52:16;3.45;;;1.85;;
75894;SDS011;64573;50.328;15.014;2023-05-10T13:54:41;3.75;;;1.80;;
75894;SDS011;64573;50.328;15.014;2023-05-10T13:57:06;5.32;;;1.75;;
75894;SDS011;64573;50.328;15.014;2023-05-10T13:59:32;3.20;;;1.90;;
75894;SDS011;64573;50.328;15.014;2023-05-10T14:01:58;2.38;;;1.70;;
75894;SDS011;64573;50.328;15.014;2023-05-10T14:04:24;3.53;;;1.88;;
75894;SDS011;64573;50.328;15.014;2023-05-10T14:06:49;3.03;;;1.75;;
75894;SDS011;64573;50.328;15.014;2023-05-10T14:09:15;4.75;;;1.80;;
75894;SDS011;64573;50.328;15.014;2023-05-10T14:11:41;1.95;;;1.50;;
75894;SDS011;64573;50.328;15.014;2023-05-10T14:14:08;7.15;;;1.90;;
75894;SDS011;64573;50.328;15.014;2023-05-10T14:16:34;3.83;;;1.70;;
75894;SDS011;64573;50.328;15.014;2023-05-10T14:18:59;5.30;;;1.60;;
75894;SDS011;64573;50.328;15.014;2023-05-10T14:21:24;4.53;;;1.90;;
75894;SDS011;64573;50.328;15.014;2023-05-10T14:23:50;5.05;;;1.58;;
75894;SDS011;64573;50.328;15.014;2023-05-10T14:26:15;5.20;;;1.63;;
75894;SDS011;64573;50.328;15.014;2023-05-10T14:28:41;5.15;;;1.85;;
75894;SDS011;64573;50.328;15.014;2023-05-10T14:31:06;4.30;;;1.75;;
75894;SDS011;64573;50.328;15.014;2023-05-10T14:33:32;4.05;;;1.50;;
75894;SDS011;64573;50.328;15.014;2023-05-10T14:35:57;4.90;;;1.40;;
75894;SDS011;64573;50.328;15.014;2023-05-10T14:38:22;3.38;;;1.40;;
75894;SDS011;64573;50.328;15.014;2023-05-10T14:40:51;1.77;;;1.52;;
75894;SDS011;64573;50.328;15.014;2023-05-10T14:43:17;6.32;;;1.52;;
75894;SDS011;64573;50.328;15.014;2023-05-10T14:45:42;2.25;;;1.40;;
75894;SDS011;64573;50.328;15.014;2023-05-10T14:48:08;2.58;;;1.58;;
75894;SDS011;64573;50.328;15.014;2023-05-10T14:50:37;4.13;;;1.50;;
75894;SDS011;64573;50.328;15.014;2023-05-10T14:53:03;1.83;;;1.60;;
75894;SDS011;64573;50.328;15.014;2023-05-10T14:55:29;1.90;;;1.30;;
75894;SDS011;64573;50.328;15.014;2023-05-10T14:57:55;4.15;;;1.50;;
75894;SDS011;64573;50.328;15.014;2023-05-10T15:00:20;3.22;;;1.33;;
75894;SDS011;64573;50.328;15.014;2023-05-10T15:02:46;5.78;;;1.65;;
75894;SDS011;64573;50.328;15.014;2023-05-10T15:05:12;2.33;;;1.27;;